createdAt,value
2019-04-10T00:02:27.896Z,7.50
2019-04-10T00:05:05.232Z,7.40
2019-04-10T00:07:37.515Z,7.30
2019-04-10T00:10:09.579Z,7.30
2019-04-10T00:12:40.334Z,7.30
2019-04-10T00:15:10.320Z,7.20
2019-04-10T00:17:40.944Z,7.30
2019-04-10T00:20:10.576Z,7.20
2019-04-10T00:22:40.522Z,7.20
2019-04-10T00:25:12.722Z,7.10
2019-04-10T00:27:47.363Z,7.10
2019-04-10T00:30:18.672Z,7.10
2019-04-10T00:32:54.420Z,7.00
2019-04-10T00:35:25.561Z,7.00
2019-04-10T00:37:57.529Z,7.00
2019-04-10T00:40:31.353Z,6.90
2019-04-10T00:43:02.299Z,6.90
2019-04-10T00:45:32.001Z,6.90
2019-04-10T00:48:01.648Z,6.80
2019-04-10T00:50:32.668Z,6.50
2019-04-10T00:53:16.993Z,6.30
2019-04-10T00:55:46.811Z,6.20
2019-04-10T00:58:16.238Z,6.20
2019-04-10T01:00:45.533Z,6.20
2019-04-10T01:03:35.783Z,6.00
2019-04-10T01:06:07.982Z,6.00
2019-04-10T01:08:37.209Z,6.00
2019-04-10T01:11:06.647Z,5.90
2019-04-10T01:13:36.896Z,5.90
2019-04-10T01:16:07.148Z,5.90
2019-04-10T01:18:37.328Z,5.90
2019-04-10T01:21:11.015Z,5.90
2019-04-10T01:23:41.644Z,5.90
2019-04-10T01:26:12.734Z,5.90
2019-04-10T01:28:42.949Z,5.80
2019-04-10T01:31:14.968Z,5.70
2019-04-10T01:33:47.406Z,5.70
2019-04-10T01:36:18.598Z,5.70
2019-04-10T01:38:49.437Z,5.60
2019-04-10T01:41:20.175Z,5.70
2019-04-10T01:43:52.029Z,5.60
2019-04-10T01:46:22.200Z,5.60
2019-04-10T01:48:51.636Z,5.50
2019-04-10T01:51:21.282Z,5.60
2019-04-10T01:53:50.925Z,5.50
2019-04-10T01:56:28.578Z,5.40
2019-04-10T01:58:53.466Z,5.40
2019-04-10T02:01:29.431Z,5.40
2019-04-10T02:03:58.603Z,5.30
2019-04-10T02:06:27.994Z,5.40
2019-04-10T02:08:58.277Z,5.40
2019-04-10T02:11:28.074Z,5.30
2019-04-10T02:13:58.259Z,5.20
2019-04-10T02:16:28.034Z,5.20
2019-04-10T02:18:59.670Z,5.10
2019-04-10T02:21:30.156Z,5.10
2019-04-10T02:24:01.152Z,5.10
2019-04-10T02:26:33.851Z,5.10
2019-04-10T02:29:03.809Z,5.10
2019-04-10T02:31:34.305Z,5.10
2019-04-10T02:34:04.837Z,5.00
2019-04-10T02:36:36.208Z,5.00
2019-04-10T02:39:17.633Z,5.00
2019-04-10T02:41:38.673Z,5.00
2019-04-10T02:44:08.123Z,5.00
2019-04-10T02:46:38.742Z,4.90
2019-04-10T02:49:08.343Z,5.00
2019-04-10T02:51:38.884Z,5.10
2019-04-10T02:54:09.397Z,5.00
2019-04-10T02:56:40.826Z,4.90
2019-04-10T02:59:11.238Z,4.80
2019-04-10T03:01:41.660Z,4.70
2019-04-10T03:04:11.871Z,4.60
2019-04-10T03:06:42.803Z,4.50
2019-04-10T03:09:30.803Z,4.40
2019-04-10T03:11:43.925Z,4.40
2019-04-10T03:14:14.766Z,4.20
2019-04-10T03:16:47.905Z,4.30
2019-04-10T03:19:17.279Z,4.20
2019-04-10T03:21:49.197Z,4.20
2019-04-10T03:24:19.153Z,4.10
2019-04-10T03:26:52.059Z,4.00
2019-04-10T03:29:21.989Z,4.00
2019-04-10T03:31:52.962Z,4.00
2019-04-10T03:34:28.205Z,3.90
2019-04-10T03:36:56.333Z,3.90
2019-04-10T03:39:25.793Z,3.80
2019-04-10T03:41:55.072Z,3.70
2019-04-10T03:44:24.992Z,3.70
2019-04-10T03:46:56.010Z,3.60
2019-04-10T03:49:25.563Z,3.60
2019-04-10T03:51:57.312Z,3.50
2019-04-10T03:54:26.496Z,3.50
2019-04-10T03:56:56.236Z,3.50
2019-04-10T03:59:26.410Z,3.50
2019-04-10T04:01:55.729Z,3.50
2019-04-10T04:04:25.799Z,3.50
2019-04-10T04:06:55.774Z,3.50
2019-04-10T04:09:32.106Z,3.40
2019-04-10T04:12:02.313Z,3.40
2019-04-10T04:14:34.611Z,3.30
2019-04-10T04:17:06.096Z,3.20
2019-04-10T04:19:35.327Z,3.20
2019-04-10T04:22:04.500Z,3.20
2019-04-10T04:24:33.707Z,3.30
2019-04-10T04:27:02.899Z,3.30
2019-04-10T04:29:32.476Z,3.20
2019-04-10T04:32:01.911Z,3.20
2019-04-10T04:34:31.308Z,3.20
2019-04-10T04:37:02.356Z,3.20
2019-04-10T04:39:32.933Z,3.20
2019-04-10T04:42:07.130Z,3.10
2019-04-10T04:44:39.624Z,3.10
2019-04-10T04:47:10.104Z,3.10
2019-04-10T04:49:39.818Z,3.10
2019-04-10T04:52:11.392Z,3.10
2019-04-10T04:54:44.092Z,3.10
2019-04-10T04:57:13.222Z,3.30
2019-04-10T04:59:45.056Z,3.30
2019-04-10T05:02:14.406Z,3.20
2019-04-10T05:04:46.814Z,3.00
2019-04-10T05:07:17.272Z,3.00
2019-04-10T05:09:46.487Z,3.00
2019-04-10T05:12:18.057Z,3.00
2019-04-10T05:14:48.165Z,2.90
2019-04-10T05:17:18.331Z,2.90
2019-04-10T05:19:48.125Z,2.90
2019-04-10T05:22:17.317Z,3.00
2019-04-10T05:24:46.746Z,3.00
2019-04-10T05:27:16.125Z,2.90
2019-04-10T05:29:45.407Z,3.00
2019-04-10T05:32:15.869Z,3.00
2019-04-10T05:34:45.203Z,3.00
2019-04-10T05:37:14.334Z,3.00
2019-04-10T05:39:49.173Z,3.10
2019-04-10T05:42:14.756Z,3.20
2019-04-10T05:44:44.512Z,3.30
2019-04-10T05:47:15.268Z,3.30
2019-04-10T05:49:47.117Z,3.30
2019-04-10T05:52:16.426Z,3.40
2019-04-10T05:54:45.669Z,3.40
2019-04-10T05:57:16.260Z,3.50
2019-04-10T05:59:45.905Z,3.50
2019-04-10T06:02:17.853Z,3.60
2019-04-10T06:04:49.663Z,3.60
2019-04-10T06:07:19.686Z,3.60
2019-04-10T06:09:55.843Z,3.70
2019-04-10T06:12:20.361Z,3.70
2019-04-10T06:14:50.494Z,3.80
2019-04-10T06:17:20.587Z,3.80
2019-04-10T06:19:50.965Z,3.80
2019-04-10T06:22:20.796Z,3.90
2019-04-10T06:24:52.420Z,3.90
2019-04-10T06:27:22.541Z,4.00
2019-04-10T06:30:00.185Z,4.00
2019-04-10T06:32:29.637Z,4.10
2019-04-10T06:34:59.575Z,4.20
2019-04-10T06:37:32.515Z,4.30
2019-04-10T06:40:17.072Z,4.40
2019-04-10T06:42:46.219Z,4.40
2019-04-10T06:45:09.081Z,4.50
2019-04-10T06:47:40.997Z,4.60
2019-04-10T06:50:10.656Z,4.50
2019-04-10T06:52:40.941Z,4.60
2019-04-10T06:55:11.539Z,4.60
2019-04-10T06:57:49.938Z,4.60
2019-04-10T07:00:18.442Z,4.60
2019-04-10T07:03:10.584Z,4.70
2019-04-10T07:05:59.895Z,4.80
2019-04-10T07:08:19.366Z,4.90
2019-04-10T07:10:56.191Z,5.00
2019-04-10T07:13:20.399Z,5.20
2019-04-10T07:15:54.416Z,5.30
2019-04-10T07:18:24.309Z,5.30
2019-04-10T07:20:59.280Z,5.50
2019-04-10T07:23:28.880Z,5.70
2019-04-10T07:25:58.347Z,5.90
2019-04-10T07:28:29.837Z,6.10
2019-04-10T07:31:04.674Z,6.50
2019-04-10T07:33:31.539Z,6.60
2019-04-10T07:36:04.300Z,6.80
2019-04-10T07:38:35.834Z,6.90
2019-04-10T07:41:13.737Z,7.00
2019-04-10T07:43:38.625Z,7.20
2019-04-10T07:46:08.290Z,7.40
2019-04-10T07:48:46.544Z,7.70
2019-04-10T07:51:16.933Z,7.70
2019-04-10T07:53:46.989Z,7.70
2019-04-10T07:56:20.713Z,7.60
2019-04-10T07:58:50.049Z,8.10
2019-04-10T08:01:19.262Z,8.20
2019-04-10T08:03:55.695Z,8.40
2019-04-10T08:06:25.652Z,8.70
2019-04-10T08:08:55.493Z,8.80
2019-04-10T08:11:29.699Z,8.70
2019-04-10T08:13:58.803Z,9.00
2019-04-10T08:16:27.947Z,9.10
2019-04-10T08:18:57.353Z,9.30
2019-04-10T08:21:27.346Z,9.30
2019-04-10T08:23:56.662Z,9.10
2019-04-10T08:26:25.807Z,9.20
2019-04-10T08:28:57.255Z,9.40
2019-04-10T08:31:26.499Z,9.40
2019-04-10T08:33:56.803Z,9.90
2019-04-10T08:36:26.164Z,10.00
2019-04-10T08:38:55.767Z,9.90
2019-04-10T08:41:27.085Z,10.20
2019-04-10T08:43:56.814Z,10.30
2019-04-10T08:46:26.161Z,10.50
2019-04-10T08:48:56.004Z,10.70
2019-04-10T08:51:25.642Z,10.70
2019-04-10T08:53:56.668Z,10.60
2019-04-10T08:56:26.006Z,10.70
2019-04-10T08:58:57.234Z,10.70
2019-04-10T09:01:26.490Z,10.90
2019-04-10T09:03:55.772Z,10.80
2019-04-10T09:06:25.203Z,11.00
2019-04-10T09:08:54.611Z,11.50
2019-04-10T09:11:29.498Z,11.30
2019-04-10T09:13:58.900Z,12.00
2019-04-10T09:16:28.839Z,12.10
2019-04-10T09:18:58.003Z,12.00
2019-04-10T09:21:28.123Z,12.00
2019-04-10T09:23:58.939Z,12.20
2019-04-10T09:26:30.647Z,12.60
2019-04-10T09:28:59.927Z,12.60
2019-04-10T09:31:29.449Z,12.40
2019-04-10T09:33:59.221Z,12.20
2019-04-10T09:36:29.148Z,12.00
2019-04-10T09:38:59.090Z,12.50
2019-04-10T09:41:29.814Z,12.40
2019-04-10T09:44:00.388Z,12.30
2019-04-10T09:46:31.053Z,12.70
2019-04-10T09:49:05.426Z,12.80
2019-04-10T09:51:34.479Z,13.30
2019-04-10T09:54:03.748Z,13.20
2019-04-10T09:56:32.996Z,13.70
2019-04-10T09:59:02.178Z,13.50
2019-04-10T10:01:31.382Z,13.60
2019-04-10T10:04:01.273Z,14.30
2019-04-10T10:06:34.525Z,14.00
2019-04-10T10:09:01.524Z,14.20
2019-04-10T10:11:30.840Z,14.30
2019-04-10T10:14:00.122Z,14.10
2019-04-10T10:16:31.632Z,13.70
2019-04-10T10:19:02.666Z,14.20
2019-04-10T10:21:32.474Z,14.20
2019-04-10T10:24:02.450Z,14.40
2019-04-10T10:26:34.487Z,14.50
2019-04-10T10:29:04.749Z,14.80
2019-04-10T10:31:34.110Z,14.90
2019-04-10T10:34:03.882Z,14.50
2019-04-10T10:36:39.135Z,14.40
2019-04-10T10:39:11.109Z,14.50
2019-04-10T10:41:36.913Z,14.50
2019-04-10T10:44:07.471Z,14.20
2019-04-10T10:46:37.659Z,15.10
2019-04-10T10:49:06.989Z,15.00
2019-04-10T10:51:40.405Z,14.80
2019-04-10T10:54:13.243Z,14.90
2019-04-10T10:56:42.643Z,15.00
2019-04-10T10:59:12.000Z,15.50
2019-04-10T11:01:42.147Z,15.90
2019-04-10T11:04:11.329Z,16.40
2019-04-10T11:06:54.359Z,16.30
2019-04-10T11:09:18.204Z,15.80
2019-04-10T11:11:47.472Z,15.30
2019-04-10T11:14:17.786Z,15.10
2019-04-10T11:16:47.410Z,15.40
2019-04-10T11:19:17.278Z,14.90
2019-04-10T11:21:47.072Z,15.50
2019-04-10T11:24:17.271Z,15.60
2019-04-10T11:26:46.566Z,16.20
2019-04-10T11:29:17.469Z,16.40
2019-04-10T11:31:47.036Z,15.40
2019-04-10T11:34:17.806Z,14.90
2019-04-10T11:36:48.751Z,15.50
2019-04-10T11:39:25.391Z,15.80
2019-04-10T11:41:50.428Z,15.50
2019-04-10T11:44:21.667Z,15.50
2019-04-10T11:46:52.663Z,15.60
2019-04-10T11:49:23.048Z,15.50
2019-04-10T11:51:55.794Z,15.30
2019-04-10T11:54:26.935Z,14.70
2019-04-10T11:56:58.712Z,14.80
2019-04-10T11:59:28.962Z,14.60
2019-04-10T12:02:02.824Z,14.80
2019-04-10T12:04:33.517Z,14.60
2019-04-10T12:07:02.085Z,14.80
2019-04-10T12:10:49.398Z,14.60
2019-04-10T12:12:02.110Z,14.70
2019-04-10T12:14:31.921Z,14.90
2019-04-10T12:17:01.393Z,14.90
2019-04-10T12:19:31.159Z,14.80
2019-04-10T12:22:00.356Z,14.70
2019-04-10T12:24:32.251Z,14.90
2019-04-10T12:27:02.414Z,15.30
2019-04-10T12:29:32.912Z,15.00
2019-04-10T12:32:02.328Z,14.80
2019-04-10T12:34:32.137Z,14.70
2019-04-10T12:37:04.664Z,14.70
2019-04-10T12:39:34.347Z,14.50
2019-04-10T12:42:03.795Z,14.50
2019-04-10T12:44:33.787Z,14.90
2019-04-10T12:47:04.202Z,14.60
2019-04-10T12:49:33.904Z,14.40
2019-04-10T12:52:05.950Z,14.60
2019-04-10T12:54:35.584Z,14.90
2019-04-10T12:57:07.964Z,14.80
2019-04-10T12:59:41.637Z,14.80
2019-04-10T13:02:12.401Z,15.00
2019-04-10T13:04:47.052Z,14.90
2019-04-10T13:07:16.295Z,14.70
2019-04-10T13:09:47.052Z,14.80
2019-04-10T13:12:17.311Z,15.00
2019-04-10T13:14:46.715Z,15.20
2019-04-10T13:17:16.532Z,15.00
2019-04-10T13:19:45.851Z,14.80
2019-04-10T13:22:15.942Z,14.90
2019-04-10T13:24:46.397Z,14.90
2019-04-10T13:27:18.994Z,14.60
2019-04-10T13:30:00.677Z,14.70
2019-04-10T13:32:32.747Z,14.50
2019-04-10T13:35:01.993Z,14.40
2019-04-10T13:37:33.757Z,14.60
2019-04-10T13:40:03.536Z,14.60
2019-04-10T13:42:37.034Z,14.20
2019-04-10T13:45:07.967Z,14.30
2019-04-10T13:47:37.265Z,14.50
2019-04-10T13:50:06.828Z,14.40
2019-04-10T13:52:38.524Z,14.50
2019-04-10T13:55:10.217Z,14.50
2019-04-10T13:57:40.204Z,14.30
2019-04-10T14:00:17.560Z,14.40
2019-04-10T14:02:47.848Z,14.80
2019-04-10T14:05:18.101Z,15.30
2019-04-10T14:07:47.265Z,15.20
2019-04-10T14:10:17.004Z,15.00
2019-04-10T14:12:47.195Z,15.30
2019-04-10T14:15:16.538Z,15.10
2019-04-10T14:17:45.980Z,15.00
2019-04-10T14:20:20.151Z,14.90
2019-04-10T14:22:55.706Z,15.30
2019-04-10T14:25:32.547Z,15.20
2019-04-10T14:28:06.961Z,15.40
2019-04-10T14:30:39.739Z,15.00
2019-04-10T14:33:09.148Z,14.90
2019-04-10T14:35:41.909Z,14.60
2019-04-10T14:38:12.337Z,14.70
2019-04-10T14:40:42.123Z,14.90
2019-04-10T14:43:12.414Z,15.30
2019-04-10T14:45:43.996Z,15.60
2019-04-10T14:48:14.090Z,16.10
2019-04-10T14:50:44.224Z,16.30
2019-04-10T14:53:13.910Z,15.90
2019-04-10T14:55:43.922Z,16.10
2019-04-10T14:58:20.514Z,15.90
2019-04-10T15:00:52.959Z,16.20
2019-04-10T15:03:22.588Z,16.00
2019-04-10T15:05:55.326Z,15.70
2019-04-10T15:08:25.964Z,16.10
2019-04-10T15:10:55.488Z,16.60
2019-04-10T15:13:25.768Z,16.30
2019-04-10T15:15:56.722Z,15.60
2019-04-10T15:18:26.772Z,15.70
2019-04-10T15:20:56.972Z,16.40
2019-04-10T15:23:28.213Z,16.80
2019-04-10T15:25:57.598Z,16.30
2019-04-10T15:28:27.444Z,16.40
2019-04-10T15:30:59.932Z,17.50
2019-04-10T15:33:29.193Z,17.60
2019-04-10T15:35:59.781Z,18.00
2019-04-10T15:38:30.366Z,17.10
2019-04-10T15:41:08.478Z,17.40
2019-04-10T15:43:38.129Z,16.40
2019-04-10T15:46:08.762Z,16.80
2019-04-10T15:48:44.190Z,16.90
2019-04-10T15:51:22.747Z,16.70
2019-04-10T15:53:53.321Z,17.40
2019-04-10T15:56:25.705Z,17.50
2019-04-10T15:58:55.632Z,17.70
2019-04-10T16:01:48.966Z,18.20
2019-04-10T16:04:19.128Z,17.50
2019-04-10T16:06:49.239Z,17.60
2019-04-10T16:09:19.052Z,16.80
2019-04-10T16:14:48.609Z,16.90
2019-04-10T16:17:39.692Z,17.00
2019-04-10T16:20:29.826Z,16.30
2019-04-10T16:23:10.066Z,16.90
2019-04-10T16:25:52.381Z,17.10
2019-04-10T16:28:25.100Z,17.00
2019-04-10T16:30:55.562Z,16.40
2019-04-10T16:33:27.358Z,16.10
2019-04-10T16:36:01.020Z,15.90
2019-04-10T16:38:33.088Z,16.00
2019-04-10T16:41:03.031Z,16.20
2019-04-10T16:43:33.778Z,16.10
2019-04-10T16:46:04.910Z,16.20
2019-04-10T16:48:37.513Z,16.10
2019-04-10T16:51:10.075Z,15.80
2019-04-10T16:53:39.428Z,15.70
2019-04-10T16:56:13.626Z,15.40
2019-04-10T16:58:47.966Z,14.80
2019-04-10T17:01:23.768Z,14.60
2019-04-10T17:03:56.655Z,14.30
2019-04-10T17:06:26.154Z,13.80
2019-04-10T17:08:56.774Z,13.10
2019-04-10T17:11:27.106Z,13.30
2019-04-10T17:13:57.175Z,13.20
2019-04-10T17:16:26.934Z,12.80
2019-04-10T17:18:57.142Z,12.70
2019-04-10T17:21:30.751Z,12.40
2019-04-10T17:24:05.362Z,12.20
2019-04-10T17:26:37.559Z,11.90
2019-04-10T17:29:07.112Z,11.70
2019-04-10T17:31:36.482Z,11.60
2019-04-10T17:34:06.244Z,11.30
2019-04-10T17:36:36.883Z,10.90
2019-04-10T17:39:11.112Z,10.90
2019-04-10T17:41:41.789Z,10.80
2019-04-10T17:44:11.836Z,10.50
2019-04-10T17:46:43.726Z,10.50
2019-04-10T17:49:13.284Z,10.50
2019-04-10T17:51:42.401Z,10.40
2019-04-10T17:54:15.292Z,10.30
2019-04-10T17:56:44.569Z,10.00
2019-04-10T17:59:16.271Z,9.80
2019-04-10T18:01:45.728Z,9.80
2019-04-10T18:04:15.960Z,9.80
2019-04-10T18:06:48.435Z,9.60
2019-04-10T18:09:17.946Z,9.50
2019-04-10T18:11:47.716Z,9.40
2019-04-10T18:14:19.234Z,9.40
2019-04-10T18:16:49.909Z,9.10
2019-04-10T18:19:19.146Z,8.90
2019-04-10T18:21:49.876Z,8.90
2019-04-10T18:24:20.354Z,8.80
2019-04-10T18:26:53.798Z,8.80
2019-04-10T18:29:23.277Z,8.80
2019-04-10T18:31:53.606Z,8.60
2019-04-10T18:34:22.754Z,8.60
2019-04-10T18:36:56.525Z,8.40
2019-04-10T18:39:26.173Z,8.30
2019-04-10T18:41:59.332Z,8.20
2019-04-10T18:44:31.132Z,8.10
2019-04-10T18:47:00.828Z,8.10
2019-04-10T18:49:34.291Z,8.10
2019-04-10T18:52:07.450Z,7.80
2019-04-10T18:54:37.048Z,7.80
2019-04-10T18:57:07.388Z,7.60
2019-04-10T18:59:51.474Z,7.60
2019-04-10T19:02:39.155Z,7.50
2019-04-10T19:05:16.349Z,7.50
2019-04-10T19:07:46.231Z,7.30
2019-04-10T19:10:15.818Z,7.30
2019-04-10T19:12:48.769Z,7.30
2019-04-10T19:15:18.423Z,7.20
2019-04-10T19:17:48.758Z,7.10
2019-04-10T19:20:18.632Z,7.00
2019-04-10T19:22:48.692Z,7.00
2019-04-10T19:25:18.988Z,6.90
2019-04-10T19:27:50.651Z,6.90
2019-04-10T19:30:35.305Z,6.80
2019-04-10T19:33:06.265Z,6.70
2019-04-10T19:35:37.748Z,6.70
2019-04-10T19:38:09.243Z,6.70
2019-04-10T19:40:41.168Z,6.70
2019-04-10T19:43:13.730Z,6.70
2019-04-10T19:45:45.505Z,6.60
2019-04-10T19:48:15.141Z,6.60
2019-04-10T19:50:45.668Z,6.50
2019-04-10T19:53:17.133Z,6.50
2019-04-10T19:55:46.414Z,6.40
2019-04-10T19:58:17.906Z,6.40
2019-04-10T20:00:49.173Z,6.30
2019-04-10T20:03:20.286Z,6.40
2019-04-10T20:05:53.904Z,6.30
2019-04-10T20:08:24.085Z,6.20
2019-04-10T20:10:53.339Z,6.30
2019-04-10T20:13:24.794Z,6.20
2019-04-10T20:15:55.795Z,6.10
2019-04-10T20:18:25.141Z,6.00
2019-04-10T20:20:55.480Z,6.00
2019-04-10T20:23:27.889Z,6.00
2019-04-10T20:25:58.759Z,6.00
2019-04-10T20:28:28.885Z,6.00
2019-04-10T20:30:59.495Z,6.00
2019-04-10T20:33:30.446Z,5.90
2019-04-10T20:36:03.262Z,5.90
2019-04-10T20:38:33.456Z,5.80
2019-04-10T20:41:06.591Z,5.80
2019-04-10T20:43:37.246Z,5.80
2019-04-10T20:46:11.981Z,5.80
2019-04-10T20:48:41.400Z,5.70
2019-04-10T20:51:10.616Z,5.70
2019-04-10T20:53:44.233Z,5.70
2019-04-10T20:56:16.852Z,5.60
2019-04-10T20:58:49.118Z,5.60
2019-04-10T21:01:20.286Z,5.50
2019-04-10T21:03:50.228Z,5.50
2019-04-10T21:06:19.347Z,5.50
2019-04-10T21:08:50.220Z,5.40
2019-04-10T21:11:21.067Z,5.30
2019-04-10T21:13:54.500Z,5.40
2019-04-10T21:16:23.862Z,5.40
2019-04-10T21:18:53.886Z,5.30
2019-04-10T21:21:24.271Z,5.30
2019-04-10T21:23:54.283Z,5.30
2019-04-10T21:26:23.987Z,5.20
2019-04-10T21:30:07.168Z,5.20
2019-04-10T21:33:00.179Z,5.20
2019-04-10T21:35:34.992Z,5.10
2019-04-10T21:38:07.491Z,5.10
2019-04-10T21:40:36.946Z,5.00
2019-04-10T21:43:07.302Z,5.00
2019-04-10T21:45:36.675Z,5.00
2019-04-10T21:48:08.592Z,4.90
2019-04-10T21:50:41.810Z,4.90
2019-04-10T21:53:11.952Z,4.90
2019-04-10T21:55:41.723Z,4.90
2019-04-10T21:58:13.072Z,4.90
2019-04-10T22:01:01.441Z,4.90
2019-04-10T22:03:31.720Z,4.90
2019-04-10T22:06:19.856Z,4.90
2019-04-10T22:08:56.160Z,4.90
2019-04-10T22:11:25.766Z,4.90
2019-04-10T22:13:56.892Z,4.80
2019-04-10T22:16:28.167Z,4.80
2019-04-10T22:18:58.171Z,4.80
2019-04-10T22:21:29.818Z,4.80
2019-04-10T22:24:01.180Z,4.70
2019-04-10T22:26:30.266Z,4.70
2019-04-10T22:28:59.528Z,4.70
2019-04-10T22:31:28.941Z,4.70
2019-04-10T22:33:58.441Z,4.60
2019-04-10T22:36:31.140Z,4.60
2019-04-10T22:39:01.118Z,4.70
2019-04-10T22:41:32.324Z,4.60
2019-04-10T22:44:03.312Z,4.70
2019-04-10T22:46:32.611Z,4.70
2019-04-10T22:49:04.228Z,4.70
2019-04-10T22:51:33.451Z,4.70
2019-04-10T22:54:04.641Z,4.70
2019-04-10T22:56:35.933Z,4.70
2019-04-10T22:59:06.024Z,4.70
2019-04-10T23:01:35.485Z,4.70
2019-04-10T23:04:08.012Z,4.70
2019-04-10T23:06:39.554Z,4.70
2019-04-10T23:09:11.773Z,4.70
2019-04-10T23:11:43.484Z,4.60
2019-04-10T23:14:12.395Z,4.70
2019-04-10T23:16:42.137Z,4.60
2019-04-10T23:19:14.602Z,4.60
2019-04-10T23:21:44.954Z,4.60
2019-04-10T23:24:14.222Z,4.50
2019-04-10T23:26:43.675Z,4.60
2019-04-10T23:29:13.920Z,4.60
2019-04-10T23:31:43.332Z,4.60
2019-04-10T23:34:14.614Z,4.50
2019-04-10T23:36:44.442Z,4.60
2019-04-10T23:39:14.230Z,4.50
2019-04-10T23:41:45.513Z,4.40
2019-04-10T23:44:16.427Z,4.40
2019-04-10T23:46:45.665Z,4.40
2019-04-10T23:49:14.846Z,4.40
2019-04-10T23:51:45.403Z,4.30
2019-04-10T23:54:15.213Z,4.20
2019-04-10T23:56:49.046Z,4.20
2019-04-10T23:59:20.520Z,4.20
